createdAt,value
2018-11-04T00:00:33.969Z,1.53
2018-11-04T00:03:02.367Z,1.53
2018-11-04T00:05:30.746Z,1.53
2018-11-04T00:07:59.175Z,1.55
2018-11-04T00:10:27.542Z,1.56
2018-11-04T00:12:55.938Z,1.57
2018-11-04T00:15:24.315Z,1.58
2018-11-04T00:17:52.706Z,1.58
2018-11-04T00:20:21.150Z,1.59
2018-11-04T00:22:49.519Z,1.57
2018-11-04T00:25:17.896Z,1.57
2018-11-04T00:27:46.330Z,1.57
2018-11-04T00:30:15.665Z,1.58
2018-11-04T00:32:44.575Z,1.58
2018-11-04T00:35:13.141Z,1.59
2018-11-04T00:37:41.550Z,1.59
2018-11-04T00:40:10.099Z,1.61
2018-11-04T00:42:38.602Z,1.61
2018-11-04T00:45:08.250Z,1.59
2018-11-04T00:47:36.907Z,1.58
2018-11-04T00:50:07.542Z,1.58
2018-11-04T00:52:35.944Z,1.56
2018-11-04T00:55:04.339Z,1.55
2018-11-04T00:57:32.837Z,1.53
2018-11-04T01:00:01.209Z,1.51
2018-11-04T01:02:29.667Z,1.49
2018-11-04T01:04:58.038Z,1.48
2018-11-04T01:07:26.433Z,1.46
2018-11-04T01:09:54.839Z,1.46
2018-11-04T01:12:23.225Z,1.46
2018-11-04T01:14:51.622Z,1.48
2018-11-04T01:17:19.996Z,1.48
2018-11-04T01:19:48.443Z,1.49
2018-11-04T01:22:16.810Z,1.50
2018-11-04T01:24:45.838Z,1.51
2018-11-04T01:27:14.226Z,1.50
2018-11-04T01:29:42.622Z,1.51
2018-11-04T01:32:10.990Z,1.53
2018-11-04T01:34:39.379Z,1.55
2018-11-04T01:37:07.753Z,1.55
2018-11-04T01:39:36.147Z,1.55
2018-11-04T01:42:04.844Z,1.54
2018-11-04T01:44:33.298Z,1.54
2018-11-04T01:47:01.671Z,1.52
2018-11-04T01:49:30.078Z,1.49
2018-11-04T01:51:58.455Z,1.46
2018-11-04T01:54:26.851Z,1.43
2018-11-04T01:56:55.217Z,1.44
2018-11-04T01:59:23.605Z,1.42
2018-11-04T02:01:51.978Z,1.41
2018-11-04T02:04:20.374Z,1.43
2018-11-04T02:06:48.761Z,1.41
2018-11-04T02:09:17.153Z,1.41
2018-11-04T02:11:45.542Z,1.41
2018-11-04T02:14:13.938Z,1.40
2018-11-04T02:16:42.582Z,1.38
2018-11-04T02:19:10.970Z,1.38
2018-11-04T02:21:39.333Z,1.38
2018-11-04T02:24:07.730Z,1.40
2018-11-04T02:26:36.111Z,1.41
2018-11-04T02:29:04.700Z,1.43
2018-11-04T02:31:33.066Z,1.46
2018-11-04T02:34:01.471Z,1.49
2018-11-04T02:36:29.843Z,1.53
2018-11-04T02:38:58.251Z,1.58
2018-11-04T02:41:26.644Z,1.63
2018-11-04T02:43:55.047Z,1.69
2018-11-04T02:46:23.455Z,1.72
2018-11-04T02:48:51.859Z,1.79
2018-11-04T02:51:20.231Z,1.83
2018-11-04T02:53:48.611Z,1.86
2018-11-04T02:56:16.990Z,1.88
2018-11-04T02:58:45.386Z,1.90
2018-11-04T03:01:13.774Z,1.88
2018-11-04T03:03:42.138Z,1.87
2018-11-04T03:06:10.526Z,1.85
2018-11-04T03:08:38.894Z,1.82
2018-11-04T03:11:07.274Z,1.80
2018-11-04T03:13:35.655Z,1.78
2018-11-04T03:16:04.046Z,1.74
2018-11-04T03:18:32.421Z,1.72
2018-11-04T03:21:00.810Z,1.67
2018-11-04T03:23:29.181Z,1.67
2018-11-04T03:25:57.664Z,1.65
2018-11-04T03:28:26.035Z,1.63
2018-11-04T03:30:54.415Z,1.62
2018-11-04T03:33:22.797Z,1.62
2018-11-04T03:35:51.187Z,1.61
2018-11-04T03:38:19.561Z,1.62
2018-11-04T03:40:47.978Z,1.64
2018-11-04T03:43:16.347Z,1.65
2018-11-04T03:45:44.754Z,1.68
2018-11-04T03:48:13.135Z,1.70
2018-11-04T03:50:41.514Z,1.74
2018-11-04T03:53:09.879Z,1.79
2018-11-04T03:55:38.562Z,1.83
2018-11-04T03:58:06.927Z,1.87
2018-11-04T04:00:35.322Z,1.90
2018-11-04T04:03:03.700Z,1.94
2018-11-04T04:05:32.129Z,1.99
2018-11-04T04:08:00.482Z,2.02
2018-11-04T04:10:28.885Z,2.07
2018-11-04T04:12:57.275Z,2.09
2018-11-04T04:15:25.679Z,2.12
2018-11-04T04:17:54.045Z,2.13
2018-11-04T04:20:22.457Z,2.15
2018-11-04T04:22:50.836Z,2.12
2018-11-04T04:25:19.225Z,2.13
2018-11-04T04:27:47.581Z,2.11
2018-11-04T04:30:15.975Z,2.09
2018-11-04T04:32:44.347Z,2.07
2018-11-04T04:35:12.747Z,2.05
2018-11-04T04:37:41.615Z,2.04
2018-11-04T04:40:10.324Z,2.04
2018-11-04T04:42:38.694Z,2.05
2018-11-04T04:45:07.064Z,2.06
2018-11-04T04:47:35.667Z,2.07
2018-11-04T04:50:04.258Z,2.09
2018-11-04T04:52:32.638Z,2.10
2018-11-04T04:55:01.012Z,2.15
2018-11-04T04:57:29.406Z,2.19
2018-11-04T04:59:57.779Z,2.24
2018-11-04T05:02:26.187Z,2.27
2018-11-04T05:04:54.559Z,2.31
2018-11-04T05:07:22.954Z,2.34
2018-11-04T05:09:51.336Z,2.37
2018-11-04T05:12:19.728Z,2.41
2018-11-04T05:14:48.123Z,2.45
2018-11-04T05:17:16.523Z,2.49
2018-11-04T05:19:44.891Z,2.53
2018-11-04T05:22:13.291Z,2.58
2018-11-04T05:24:41.661Z,2.64
2018-11-04T05:27:10.056Z,2.69
2018-11-04T05:29:38.421Z,2.76
2018-11-04T05:32:06.919Z,2.85
2018-11-04T05:34:35.295Z,2.93
2018-11-04T05:37:03.690Z,3.01
2018-11-04T05:39:32.058Z,3.12
2018-11-04T05:42:00.478Z,3.20
2018-11-04T05:44:28.859Z,3.28
2018-11-04T05:46:57.262Z,3.37
2018-11-04T05:49:25.628Z,3.46
2018-11-04T05:51:54.019Z,3.54
2018-11-04T05:54:22.399Z,3.63
2018-11-04T05:56:50.789Z,3.72
2018-11-04T05:59:19.162Z,3.79
2018-11-04T06:01:47.577Z,3.85
2018-11-04T06:04:15.963Z,3.90
2018-11-04T06:06:44.353Z,3.96
2018-11-04T06:09:12.727Z,4.00
2018-11-04T06:11:41.144Z,4.00
2018-11-04T06:14:09.506Z,4.07
2018-11-04T06:16:37.892Z,4.09
2018-11-04T06:19:06.407Z,4.13
2018-11-04T06:21:34.815Z,4.14
2018-11-04T06:24:03.191Z,4.18
2018-11-04T06:26:31.613Z,4.19
2018-11-04T06:28:59.986Z,4.22
2018-11-04T06:31:28.360Z,4.26
2018-11-04T06:33:56.759Z,4.27
2018-11-04T06:36:25.139Z,4.30
2018-11-04T06:38:53.534Z,4.38
2018-11-04T06:41:21.936Z,4.42
2018-11-04T06:43:50.326Z,4.44
2018-11-04T06:46:18.708Z,4.52
2018-11-04T06:48:47.107Z,4.57
2018-11-04T06:51:15.479Z,4.61
2018-11-04T06:53:43.870Z,4.67
2018-11-04T06:56:12.238Z,4.70
2018-11-04T06:58:40.631Z,4.75
2018-11-04T07:01:09.050Z,4.81
2018-11-04T07:03:37.575Z,4.83
2018-11-04T07:06:05.943Z,4.90
2018-11-04T07:08:34.331Z,4.94
2018-11-04T07:11:02.704Z,4.96
2018-11-04T07:13:31.099Z,5.06
2018-11-04T07:15:59.475Z,5.11
2018-11-04T07:18:27.863Z,5.17
2018-11-04T07:20:56.244Z,5.23
2018-11-04T07:23:24.643Z,5.28
2018-11-04T07:25:53.007Z,5.34
2018-11-04T07:28:23.054Z,5.38
2018-11-04T07:30:51.439Z,5.40
2018-11-04T07:33:19.834Z,5.43
2018-11-04T07:35:48.207Z,5.45
2018-11-04T07:38:16.603Z,5.49
2018-11-04T07:40:45.000Z,5.50
2018-11-04T07:43:13.395Z,5.54
2018-11-04T07:45:41.771Z,5.59
2018-11-04T07:48:10.183Z,5.66
2018-11-04T07:50:38.740Z,5.73
2018-11-04T07:53:07.079Z,5.80
2018-11-04T07:55:35.454Z,5.86
2018-11-04T07:58:03.842Z,5.93
2018-11-04T08:00:32.211Z,5.99
2018-11-04T08:03:00.602Z,6.09
2018-11-04T08:05:28.980Z,6.14
2018-11-04T08:07:57.369Z,6.24
2018-11-04T08:10:25.751Z,6.29
2018-11-04T08:12:54.151Z,6.32
2018-11-04T08:15:22.517Z,6.39
2018-11-04T08:17:50.933Z,6.43
2018-11-04T08:20:19.304Z,6.47
2018-11-04T08:22:47.675Z,6.49
2018-11-04T08:25:16.079Z,6.52
2018-11-04T08:27:44.490Z,6.57
2018-11-04T08:30:12.893Z,6.61
2018-11-04T08:32:41.271Z,6.64
2018-11-04T08:35:09.682Z,6.67
2018-11-04T08:37:38.051Z,6.71
2018-11-04T08:40:07.056Z,6.79
2018-11-04T08:42:35.376Z,6.86
2018-11-04T08:45:03.836Z,6.97
2018-11-04T08:47:32.202Z,7.04
2018-11-04T08:50:00.604Z,7.11
2018-11-04T08:52:29.052Z,7.19
2018-11-04T08:54:57.689Z,7.26
2018-11-04T08:57:26.063Z,7.34
2018-11-04T08:59:54.491Z,7.42
2018-11-04T09:02:22.871Z,7.48
2018-11-04T09:04:51.263Z,7.58
2018-11-04T09:07:19.630Z,7.66
2018-11-04T09:09:48.047Z,7.73
2018-11-04T09:12:16.573Z,7.81
2018-11-04T09:14:44.971Z,7.87
2018-11-04T09:17:13.344Z,7.95
2018-11-04T09:19:41.739Z,8.03
2018-11-04T09:22:10.243Z,8.11
2018-11-04T09:24:38.598Z,8.19
2018-11-04T09:27:06.971Z,8.27
2018-11-04T09:29:43.687Z,8.33
2018-11-04T09:32:12.055Z,8.42
2018-11-04T09:34:40.524Z,8.49
2018-11-04T09:37:08.880Z,8.56
2018-11-04T09:39:37.271Z,8.62
2018-11-04T09:42:05.955Z,8.70
2018-11-04T09:44:34.351Z,8.78
2018-11-04T09:47:02.718Z,8.86
2018-11-04T09:49:31.123Z,8.95
2018-11-04T09:51:59.490Z,9.03
2018-11-04T09:54:27.890Z,9.12
2018-11-04T09:56:56.262Z,9.21
2018-11-04T09:59:24.659Z,9.33
2018-11-04T10:01:53.030Z,9.41
2018-11-04T10:04:21.397Z,9.51
2018-11-04T10:06:49.791Z,9.59
2018-11-04T10:09:18.154Z,9.67
2018-11-04T10:11:46.555Z,9.73
2018-11-04T10:14:14.927Z,9.79
2018-11-04T10:16:43.332Z,9.86
2018-11-04T10:19:11.857Z,9.92
2018-11-04T10:21:40.131Z,9.98
2018-11-04T10:24:08.510Z,10.02
2018-11-04T10:26:36.901Z,10.08
2018-11-04T10:29:05.590Z,10.13
2018-11-04T10:31:34.004Z,10.16
2018-11-04T10:34:02.523Z,10.21
2018-11-04T10:36:30.922Z,10.26
2018-11-04T10:38:59.291Z,10.31
2018-11-04T10:41:27.710Z,10.34
2018-11-04T10:43:56.081Z,10.38
2018-11-04T10:46:24.480Z,10.41
2018-11-04T10:48:53.007Z,10.44
2018-11-04T10:51:21.403Z,10.47
2018-11-04T10:53:49.774Z,10.51
2018-11-04T10:56:18.170Z,10.52
2018-11-04T10:58:46.577Z,10.53
2018-11-04T11:01:14.975Z,10.56
2018-11-04T11:03:43.358Z,10.55
2018-11-04T11:06:11.767Z,10.59
2018-11-04T11:08:40.134Z,10.61
2018-11-04T11:11:08.647Z,10.64
2018-11-04T11:13:37.026Z,10.65
2018-11-04T11:16:05.643Z,10.67
2018-11-04T11:18:34.019Z,10.67
2018-11-04T11:21:02.425Z,10.70
2018-11-04T11:23:30.798Z,10.73
2018-11-04T11:25:59.189Z,10.75
2018-11-04T11:28:27.579Z,10.79
2018-11-04T11:30:55.983Z,10.80
2018-11-04T11:33:24.363Z,10.81
2018-11-04T11:35:52.863Z,10.84
2018-11-04T11:38:21.242Z,10.86
2018-11-04T11:40:49.671Z,10.87
2018-11-04T11:43:18.054Z,10.88
2018-11-04T11:45:46.436Z,10.89
2018-11-04T11:48:14.844Z,10.90
2018-11-04T11:50:43.229Z,10.90
2018-11-04T11:53:11.815Z,10.93
2018-11-04T11:55:40.191Z,10.96
2018-11-04T11:58:08.691Z,10.99
2018-11-04T12:00:37.080Z,11.02
2018-11-04T12:03:05.778Z,11.06
2018-11-04T12:05:34.155Z,11.09
2018-11-04T12:08:02.552Z,11.11
2018-11-04T12:10:30.931Z,11.13
2018-11-04T12:12:59.344Z,11.15
2018-11-04T12:15:27.736Z,11.16
2018-11-04T12:17:56.189Z,11.18
2018-11-04T12:20:24.541Z,11.22
2018-11-04T12:22:52.943Z,11.23
2018-11-04T12:25:21.323Z,11.25
2018-11-04T12:27:49.720Z,11.28
2018-11-04T12:30:18.095Z,11.30
2018-11-04T12:32:46.635Z,11.32
2018-11-04T12:35:15.118Z,11.34
2018-11-04T12:37:43.588Z,11.33
2018-11-04T12:40:12.946Z,11.38
2018-11-04T12:42:41.343Z,11.40
2018-11-04T12:45:11.154Z,11.42
2018-11-04T12:47:39.541Z,11.42
2018-11-04T12:50:09.103Z,11.42
2018-11-04T12:52:37.535Z,11.41
2018-11-04T12:55:06.326Z,11.42
2018-11-04T12:57:35.094Z,11.44
2018-11-04T13:00:03.884Z,11.42
2018-11-04T13:02:32.287Z,11.43
2018-11-04T13:05:00.663Z,11.43
2018-11-04T13:07:29.103Z,11.43
2018-11-04T13:09:57.588Z,11.45
2018-11-04T13:12:26.414Z,11.48
2018-11-04T13:14:54.791Z,11.49
2018-11-04T13:17:23.182Z,11.49
2018-11-04T13:19:51.555Z,11.50
2018-11-04T13:22:19.963Z,11.52
2018-11-04T13:24:48.338Z,11.54
2018-11-04T13:27:16.734Z,11.55
2018-11-04T13:29:45.111Z,11.56
2018-11-04T13:32:13.513Z,11.54
2018-11-04T13:34:41.874Z,11.51
2018-11-04T13:37:10.278Z,11.51
2018-11-04T13:39:38.692Z,11.50
2018-11-04T13:42:07.085Z,11.53
2018-11-04T13:44:35.540Z,11.54
2018-11-04T13:47:03.928Z,11.53
2018-11-04T13:49:32.436Z,11.54
2018-11-04T13:52:00.734Z,11.57
2018-11-04T13:54:29.278Z,11.58
2018-11-04T13:56:57.646Z,11.59
2018-11-04T13:59:26.043Z,11.62
2018-11-04T14:01:54.421Z,11.61
2018-11-04T14:04:22.819Z,11.60
2018-11-04T14:06:51.198Z,11.59
2018-11-04T14:09:19.589Z,11.59
2018-11-04T14:11:47.976Z,11.59
2018-11-04T14:14:16.385Z,11.61
2018-11-04T14:16:44.770Z,11.59
2018-11-04T14:19:13.639Z,11.61
2018-11-04T14:21:42.006Z,11.61
2018-11-04T14:24:10.423Z,11.58
2018-11-04T14:26:38.831Z,11.58
2018-11-04T14:29:07.230Z,11.58
2018-11-04T14:31:35.619Z,11.57
2018-11-04T14:34:04.070Z,11.56
2018-11-04T14:36:32.440Z,11.55
2018-11-04T14:39:00.856Z,11.53
2018-11-04T14:41:29.260Z,11.52
2018-11-04T14:43:57.663Z,11.49
2018-11-04T14:46:26.047Z,11.44
2018-11-04T14:48:54.446Z,11.45
2018-11-04T14:51:22.846Z,11.44
2018-11-04T14:53:51.266Z,11.44
2018-11-04T14:56:21.831Z,11.43
2018-11-04T14:58:50.231Z,11.42
2018-11-04T15:01:18.643Z,11.41
2018-11-04T15:03:47.060Z,11.41
2018-11-04T15:06:15.443Z,11.42
2018-11-04T15:08:43.865Z,11.42
2018-11-04T15:11:12.292Z,11.43
2018-11-04T15:13:40.711Z,11.42
2018-11-04T15:16:09.083Z,11.42
2018-11-04T15:18:37.567Z,11.42
2018-11-04T15:21:05.883Z,11.41
2018-11-04T15:23:34.287Z,11.41
2018-11-04T15:26:02.667Z,11.41
2018-11-04T15:28:31.067Z,11.41
2018-11-04T15:30:59.462Z,11.41
2018-11-04T15:33:27.852Z,11.41
2018-11-04T15:35:56.251Z,11.41
2018-11-04T15:38:24.677Z,11.39
2018-11-04T15:40:53.087Z,11.39
2018-11-04T15:43:21.462Z,11.37
2018-11-04T15:45:50.056Z,11.35
2018-11-04T15:48:18.435Z,11.33
2018-11-04T15:50:46.831Z,11.32
2018-11-04T15:53:15.211Z,11.28
2018-11-04T15:55:43.621Z,11.28
2018-11-04T15:58:11.998Z,11.29
2018-11-04T16:00:40.396Z,11.27
2018-11-04T16:03:08.787Z,11.26
2018-11-04T16:05:37.205Z,11.25
2018-11-04T16:08:06.402Z,11.24
2018-11-04T16:10:34.811Z,11.24
2018-11-04T16:13:03.195Z,11.25
2018-11-04T16:15:31.594Z,11.26
2018-11-04T16:17:59.985Z,11.25
2018-11-04T16:20:28.396Z,11.25
2018-11-04T16:22:56.775Z,11.24
2018-11-04T16:25:25.222Z,11.25
2018-11-04T16:27:53.582Z,11.24
2018-11-04T16:30:21.987Z,11.23
2018-11-04T16:32:50.371Z,11.23
2018-11-04T16:35:18.830Z,11.22
2018-11-04T16:37:47.349Z,11.21
2018-11-04T16:40:15.647Z,11.22
2018-11-04T16:42:44.015Z,11.21
2018-11-04T16:45:14.336Z,11.21
2018-11-04T16:47:42.716Z,11.21
2018-11-04T16:50:12.226Z,11.19
2018-11-04T16:52:40.894Z,11.19
2018-11-04T16:55:10.314Z,11.18
2018-11-04T16:57:38.698Z,11.17
2018-11-04T17:00:08.131Z,11.16
2018-11-04T17:02:36.966Z,11.16
2018-11-04T17:05:05.626Z,11.17
2018-11-04T17:07:34.015Z,11.16
2018-11-04T17:10:02.424Z,11.15
2018-11-04T17:12:30.800Z,11.15
2018-11-04T17:14:59.198Z,11.14
2018-11-04T17:17:27.577Z,11.15
2018-11-04T17:19:56.019Z,11.16
2018-11-04T17:22:24.431Z,11.16
2018-11-04T17:24:52.834Z,11.16
2018-11-04T17:27:21.239Z,11.17
2018-11-04T17:29:49.623Z,11.17
2018-11-04T17:32:18.027Z,11.17
2018-11-04T17:34:46.406Z,11.17
2018-11-04T17:37:14.806Z,11.18
2018-11-04T17:39:43.177Z,11.19
2018-11-04T17:42:11.607Z,11.18
2018-11-04T17:44:40.068Z,11.17
2018-11-04T17:47:08.415Z,11.18
2018-11-04T17:49:36.803Z,11.18
2018-11-04T17:52:05.222Z,11.18
2018-11-04T17:54:33.638Z,11.18
2018-11-04T17:57:02.047Z,11.18
2018-11-04T17:59:30.432Z,11.18
2018-11-04T18:01:58.835Z,11.18
2018-11-04T18:04:27.226Z,11.17
2018-11-04T18:06:55.633Z,11.17
2018-11-04T18:09:24.008Z,11.17
2018-11-04T18:11:52.406Z,11.17
2018-11-04T18:14:20.796Z,11.16
2018-11-04T18:16:49.207Z,11.16
2018-11-04T18:19:17.601Z,11.16
2018-11-04T18:21:46.117Z,11.16
2018-11-04T18:24:14.495Z,11.18
2018-11-04T18:26:42.950Z,11.18
2018-11-04T18:29:11.299Z,11.18
2018-11-04T18:31:39.727Z,11.19
2018-11-04T18:34:08.124Z,11.15
2018-11-04T18:36:36.517Z,11.20
2018-11-04T18:39:06.770Z,11.19
2018-11-04T18:41:35.343Z,11.19
2018-11-04T18:44:03.779Z,11.20
2018-11-04T18:46:32.196Z,11.21
2018-11-04T18:49:00.588Z,11.21
2018-11-04T18:51:29.324Z,11.18
2018-11-04T18:53:57.702Z,11.16
2018-11-04T18:56:26.110Z,11.16
2018-11-04T18:58:54.515Z,11.15
2018-11-04T19:01:23.208Z,11.15
2018-11-04T19:03:51.591Z,11.15
2018-11-04T19:06:20.091Z,11.13
2018-11-04T19:08:48.576Z,11.13
2018-11-04T19:11:17.010Z,11.12
2018-11-04T19:13:45.418Z,11.12
2018-11-04T19:16:13.802Z,11.11
2018-11-04T19:18:42.486Z,11.12
2018-11-04T19:21:10.838Z,11.10
2018-11-04T19:23:39.246Z,11.10
2018-11-04T19:26:07.658Z,11.10
2018-11-04T19:28:36.104Z,11.10
2018-11-04T19:31:04.524Z,11.08
2018-11-04T19:33:32.916Z,11.08
2018-11-04T19:36:01.303Z,11.08
2018-11-04T19:38:29.736Z,11.08
2018-11-04T19:40:58.178Z,11.08
2018-11-04T19:43:26.593Z,11.07
2018-11-04T19:45:54.983Z,11.08
2018-11-04T19:48:23.396Z,11.08
2018-11-04T19:50:51.817Z,11.07
2018-11-04T19:53:20.248Z,11.06
2018-11-04T19:55:48.633Z,11.06
2018-11-04T19:58:17.048Z,11.07
2018-11-04T20:00:45.431Z,11.08
2018-11-04T20:03:13.839Z,11.08
2018-11-04T20:05:42.227Z,11.10
2018-11-04T20:08:10.639Z,11.11
2018-11-04T20:10:39.076Z,11.11
2018-11-04T20:13:12.790Z,11.12
2018-11-04T20:15:41.167Z,11.11
2018-11-04T20:18:15.032Z,11.12
2018-11-04T20:20:43.561Z,11.13
2018-11-04T20:23:12.141Z,11.12
2018-11-04T20:25:45.895Z,11.12
2018-11-04T20:28:14.743Z,11.12
2018-11-04T20:30:43.728Z,11.12
2018-11-04T20:33:13.761Z,11.11
2018-11-04T20:35:42.146Z,11.10
2018-11-04T20:38:10.560Z,11.10
2018-11-04T20:40:44.282Z,11.10
2018-11-04T20:43:12.678Z,11.11
2018-11-04T20:45:41.057Z,11.10
2018-11-04T20:48:14.795Z,11.10
2018-11-04T20:50:48.422Z,11.09
2018-11-04T20:53:16.823Z,11.06
2018-11-04T20:55:50.500Z,11.05
2018-11-04T20:58:19.113Z,11.03
2018-11-04T21:00:47.413Z,11.02
2018-11-04T21:03:15.814Z,11.01
2018-11-04T21:05:44.194Z,11.00
2018-11-04T21:08:12.595Z,11.00
2018-11-04T21:10:40.976Z,10.99
2018-11-04T21:13:09.436Z,10.99
2018-11-04T21:15:37.836Z,11.00
2018-11-04T21:18:06.332Z,11.00
2018-11-04T21:20:34.734Z,11.01
2018-11-04T21:23:03.111Z,11.03
2018-11-04T21:25:31.569Z,11.02
2018-11-04T21:27:59.970Z,11.02
2018-11-04T21:30:28.355Z,11.03
2018-11-04T21:32:56.744Z,11.03
2018-11-04T21:35:25.143Z,11.05
2018-11-04T21:37:53.619Z,11.05
2018-11-04T21:40:21.994Z,11.07
2018-11-04T21:42:50.530Z,11.06
2018-11-04T21:45:18.787Z,11.06
2018-11-04T21:47:47.166Z,11.08
2018-11-04T21:50:15.558Z,11.09
2018-11-04T21:52:43.944Z,11.10
2018-11-04T21:55:13.348Z,11.11
2018-11-04T21:57:42.783Z,11.12
2018-11-04T22:00:13.031Z,11.13
2018-11-04T22:02:41.605Z,11.12
2018-11-04T22:05:10.610Z,11.12
2018-11-04T22:07:39.397Z,11.12
2018-11-04T22:10:10.030Z,11.11
2018-11-04T22:12:38.599Z,11.11
2018-11-04T22:15:07.091Z,11.10
2018-11-04T22:17:35.655Z,11.11
2018-11-04T22:20:04.328Z,11.12
2018-11-04T22:22:32.716Z,11.12
2018-11-04T22:25:01.119Z,11.14
2018-11-04T22:27:29.495Z,11.13
2018-11-04T22:29:57.886Z,11.13
2018-11-04T22:32:26.262Z,11.12
2018-11-04T22:34:54.662Z,11.13
2018-11-04T22:37:23.051Z,11.13
2018-11-04T22:39:51.462Z,11.14
2018-11-04T22:42:19.974Z,11.14
2018-11-04T22:44:48.295Z,11.13
2018-11-04T22:47:16.687Z,11.13
2018-11-04T22:49:45.096Z,11.12
2018-11-04T22:52:13.475Z,11.11
2018-11-04T22:54:41.886Z,11.11
2018-11-04T22:57:10.262Z,11.10
2018-11-04T22:59:38.655Z,11.10
2018-11-04T23:02:07.037Z,11.11
2018-11-04T23:04:40.895Z,11.11
2018-11-04T23:07:09.280Z,11.11
2018-11-04T23:09:37.703Z,11.11
2018-11-04T23:12:06.176Z,11.10
2018-11-04T23:14:34.551Z,11.10
2018-11-04T23:17:02.947Z,11.11
2018-11-04T23:19:31.324Z,11.10
2018-11-04T23:21:59.733Z,11.09
2018-11-04T23:24:28.125Z,11.11
2018-11-04T23:26:56.535Z,11.11
2018-11-04T23:29:24.923Z,11.13
2018-11-04T23:31:53.326Z,11.13
2018-11-04T23:34:21.710Z,11.14
2018-11-04T23:36:50.127Z,11.14
2018-11-04T23:39:18.506Z,11.15
2018-11-04T23:41:46.931Z,11.13
2018-11-04T23:44:15.311Z,11.17
2018-11-04T23:46:43.707Z,11.18
2018-11-04T23:49:12.711Z,11.21
2018-11-04T23:51:41.102Z,11.22
2018-11-04T23:54:09.514Z,11.22
2018-11-04T23:56:37.911Z,11.24
2018-11-04T23:59:06.291Z,11.26
